createdAt,value
2023-05-14T00:00:19.863Z,98.47
2023-05-14T00:02:46.404Z,98.63
2023-05-14T00:05:12.931Z,99.14
2023-05-14T00:07:39.379Z,99.23
2023-05-14T00:10:06.773Z,98.61
2023-05-14T00:12:33.280Z,98.22
2023-05-14T00:14:59.745Z,98.42
2023-05-14T00:17:26.603Z,98.56
2023-05-14T00:19:53.092Z,98.40
2023-05-14T00:22:19.795Z,99.08
2023-05-14T00:24:46.237Z,99.07
2023-05-14T00:27:12.725Z,98.35
2023-05-14T00:29:39.150Z,98.02
2023-05-14T00:32:06.161Z,98.48
2023-05-14T00:34:32.652Z,99.31
2023-05-14T00:36:59.076Z,99.01
2023-05-14T00:39:25.482Z,98.74
2023-05-14T00:41:52.050Z,97.98
2023-05-14T00:44:18.407Z,98.44
2023-05-14T00:46:44.929Z,99.49
2023-05-14T00:49:11.494Z,99.50
2023-05-14T00:51:38.500Z,99.31
2023-05-14T00:54:05.269Z,99.00
2023-05-14T00:56:31.882Z,100.00
2023-05-14T00:58:58.546Z,100.00
2023-05-14T01:01:25.405Z,100.00
2023-05-14T01:03:53.460Z,100.00
2023-05-14T01:06:28.831Z,99.83
2023-05-14T01:09:25.252Z,100.00
2023-05-14T01:12:19.358Z,99.25
2023-05-14T01:15:01.835Z,99.36
2023-05-14T01:17:31.988Z,99.52
2023-05-14T01:20:00.279Z,100.00
2023-05-14T01:22:27.021Z,99.80
2023-05-14T01:24:53.406Z,99.37
2023-05-14T01:27:44.217Z,99.15
2023-05-14T01:30:16.776Z,98.72
2023-05-14T01:32:48.082Z,100.00
2023-05-14T01:35:15.593Z,99.69
2023-05-14T01:37:43.986Z,99.37
2023-05-14T01:40:11.552Z,99.72
2023-05-14T01:42:38.881Z,100.00
2023-05-14T01:45:06.027Z,100.00
2023-05-14T01:47:32.588Z,100.00
2023-05-14T01:49:59.073Z,99.78
2023-05-14T01:52:25.576Z,99.36
2023-05-14T01:54:52.083Z,100.00
2023-05-14T01:57:18.541Z,100.00
2023-05-14T01:59:45.037Z,100.00
2023-05-14T02:02:11.404Z,100.00
2023-05-14T02:04:37.897Z,100.00
2023-05-14T02:07:04.636Z,100.00
2023-05-14T02:09:31.071Z,100.00
2023-05-14T02:11:57.561Z,100.00
2023-05-14T02:14:24.029Z,99.75
2023-05-14T02:16:51.358Z,100.00
2023-05-14T02:19:19.805Z,100.00
2023-05-14T02:21:46.230Z,99.83
2023-05-14T02:24:12.629Z,99.13
2023-05-14T02:26:39.130Z,99.55
2023-05-14T02:29:05.694Z,99.95
2023-05-14T02:31:32.155Z,99.56
2023-05-14T02:33:58.621Z,100.00
2023-05-14T02:36:25.025Z,100.00
2023-05-14T02:38:51.379Z,100.00
2023-05-14T02:41:17.891Z,100.00
2023-05-14T02:43:44.427Z,100.00
2023-05-14T02:46:10.835Z,100.00
2023-05-14T02:48:37.219Z,100.00
2023-05-14T02:51:03.868Z,100.00
2023-05-14T02:53:30.474Z,100.00
2023-05-14T02:55:56.942Z,100.00
2023-05-14T02:58:28.142Z,100.00
2023-05-14T03:00:55.067Z,100.00
2023-05-14T03:03:22.302Z,100.00
2023-05-14T03:05:49.300Z,100.00
2023-05-14T03:08:15.698Z,100.00
2023-05-14T03:10:42.195Z,100.00
2023-05-14T03:13:08.731Z,100.00
2023-05-14T03:15:35.128Z,100.00
2023-05-14T03:18:01.695Z,100.00
2023-05-14T03:20:28.198Z,100.00
2023-05-14T03:22:56.138Z,100.00
2023-05-14T03:25:22.833Z,100.00
2023-05-14T03:27:49.298Z,99.96
2023-05-14T03:30:15.745Z,100.00
2023-05-14T03:32:42.874Z,100.00
2023-05-14T03:35:09.457Z,99.67
2023-05-14T03:37:37.134Z,100.00
2023-05-14T03:40:04.041Z,100.00
2023-05-14T03:42:30.429Z,100.00
2023-05-14T03:44:56.909Z,100.00
2023-05-14T03:47:23.483Z,100.00
2023-05-14T03:49:51.028Z,100.00
2023-05-14T03:52:17.472Z,100.00
2023-05-14T03:54:44.024Z,100.00
2023-05-14T03:57:10.552Z,100.00
2023-05-14T03:59:36.941Z,100.00
2023-05-14T04:02:03.506Z,100.00
2023-05-14T04:04:29.983Z,100.00
2023-05-14T04:06:56.370Z,100.00
2023-05-14T04:09:23.355Z,100.00
2023-05-14T04:11:49.809Z,100.00
2023-05-14T04:14:16.316Z,100.00
2023-05-14T04:16:42.839Z,100.00
2023-05-14T04:19:09.336Z,100.00
2023-05-14T04:21:36.027Z,100.00
2023-05-14T04:24:02.586Z,99.72
2023-05-14T04:26:29.006Z,100.00
2023-05-14T04:28:55.689Z,99.18
2023-05-14T04:31:22.135Z,99.15
2023-05-14T04:33:48.716Z,98.67
2023-05-14T04:36:15.975Z,97.98
2023-05-14T04:38:42.431Z,98.67
2023-05-14T04:41:08.927Z,98.91
2023-05-14T04:43:35.396Z,98.09
2023-05-14T04:46:02.449Z,97.78
2023-05-14T04:48:29.013Z,99.83
2023-05-14T04:50:55.447Z,100.00
2023-05-14T04:53:21.886Z,99.52
2023-05-14T04:55:48.290Z,99.93
2023-05-14T04:58:14.676Z,99.94
2023-05-14T05:00:41.382Z,99.73
2023-05-14T05:03:08.788Z,99.68
2023-05-14T05:05:35.454Z,99.88
2023-05-14T05:08:02.113Z,99.69
2023-05-14T05:10:28.621Z,99.79
2023-05-14T05:12:55.035Z,98.99
2023-05-14T05:15:21.685Z,98.61
2023-05-14T05:17:48.272Z,98.56
2023-05-14T05:20:14.857Z,98.57
2023-05-14T05:22:41.630Z,97.73
2023-05-14T05:25:09.053Z,97.20
2023-05-14T05:27:35.555Z,97.82
2023-05-14T05:30:02.356Z,96.60
2023-05-14T05:32:28.833Z,91.66
2023-05-14T05:34:55.687Z,90.19
2023-05-14T05:37:22.253Z,90.16
2023-05-14T05:39:49.297Z,87.32
2023-05-14T05:42:15.723Z,88.42
2023-05-14T05:44:42.123Z,82.72
2023-05-14T05:47:08.587Z,87.23
2023-05-14T05:49:36.804Z,89.63
2023-05-14T05:52:04.250Z,91.07
2023-05-14T05:54:32.342Z,90.71
2023-05-14T05:56:59.345Z,90.64
2023-05-14T05:59:25.744Z,90.98
2023-05-14T06:01:52.267Z,90.88
2023-05-14T06:04:18.649Z,92.50
2023-05-14T06:06:45.122Z,91.73
2023-05-14T06:09:11.586Z,92.89
2023-05-14T06:11:38.082Z,93.29
2023-05-14T06:14:04.675Z,92.20
2023-05-14T06:16:31.364Z,93.27
2023-05-14T06:18:58.064Z,92.77
2023-05-14T06:21:24.589Z,92.04
2023-05-14T06:23:51.107Z,91.36
2023-05-14T06:26:17.613Z,89.82
2023-05-14T06:28:44.799Z,90.23
2023-05-14T06:31:11.267Z,89.99
2023-05-14T06:33:37.764Z,88.87
2023-05-14T06:36:05.831Z,89.00
2023-05-14T06:38:32.435Z,87.89
2023-05-14T06:40:58.882Z,87.66
2023-05-14T06:43:25.632Z,86.83
2023-05-14T06:45:52.264Z,83.81
2023-05-14T06:48:19.940Z,82.11
2023-05-14T06:50:49.886Z,81.26
2023-05-14T06:53:16.851Z,80.65
2023-05-14T06:55:43.361Z,78.14
2023-05-14T06:58:09.878Z,74.94
2023-05-14T07:00:36.358Z,72.08
2023-05-14T07:03:02.884Z,69.66
2023-05-14T07:05:29.392Z,69.76
2023-05-14T07:07:55.863Z,67.45
2023-05-14T07:10:22.917Z,65.36
2023-05-14T07:12:49.957Z,64.61
2023-05-14T07:15:16.529Z,63.73
2023-05-14T07:17:43.161Z,62.75
2023-05-14T07:20:10.157Z,63.23
2023-05-14T07:22:36.595Z,63.84
2023-05-14T07:25:03.288Z,61.49
2023-05-14T07:27:29.742Z,60.59
2023-05-14T07:29:56.208Z,60.28
2023-05-14T07:32:24.986Z,59.63
2023-05-14T07:34:51.754Z,56.38
2023-05-14T07:37:18.628Z,54.86
2023-05-14T07:39:45.137Z,55.36
2023-05-14T07:42:13.735Z,53.86
2023-05-14T07:44:46.059Z,54.06
2023-05-14T07:47:12.605Z,54.04
2023-05-14T07:49:42.052Z,51.99
2023-05-14T07:52:08.427Z,51.22
2023-05-14T07:54:34.824Z,52.56
2023-05-14T07:57:01.327Z,50.78
2023-05-14T07:59:27.827Z,51.78
2023-05-14T08:01:54.417Z,50.91
2023-05-14T08:04:23.328Z,50.49
2023-05-14T08:06:50.059Z,50.95
2023-05-14T08:09:16.488Z,50.86
2023-05-14T08:11:42.968Z,49.38
2023-05-14T08:14:09.499Z,49.81
2023-05-14T08:16:36.261Z,50.69
2023-05-14T08:19:02.832Z,48.32
2023-05-14T08:21:29.337Z,49.89
2023-05-14T08:23:55.818Z,50.45
2023-05-14T08:26:22.856Z,51.58
2023-05-14T08:28:53.075Z,55.10
2023-05-14T08:31:22.810Z,49.78
2023-05-14T08:33:49.359Z,50.58
2023-05-14T08:36:16.233Z,51.44
2023-05-14T08:38:42.810Z,50.77
2023-05-14T08:41:11.707Z,51.61
2023-05-14T08:43:47.814Z,51.35
2023-05-14T08:46:15.355Z,49.86
2023-05-14T08:48:46.074Z,49.59
2023-05-14T08:51:14.180Z,50.85
2023-05-14T08:53:40.821Z,50.33
2023-05-14T08:56:08.796Z,51.74
2023-05-14T08:58:35.491Z,53.51
2023-05-14T09:01:02.244Z,50.99
2023-05-14T09:03:29.326Z,51.38
2023-05-14T09:06:00.320Z,49.20
2023-05-14T09:08:29.262Z,49.52
2023-05-14T09:10:55.744Z,50.10
2023-05-14T09:13:22.266Z,51.41
2023-05-14T09:15:51.185Z,50.35
2023-05-14T09:18:20.479Z,51.60
2023-05-14T09:20:47.908Z,51.40
2023-05-14T09:23:14.466Z,51.64
2023-05-14T09:25:40.976Z,52.41
2023-05-14T09:28:09.354Z,53.33
2023-05-14T09:30:37.111Z,53.42
2023-05-14T09:33:04.286Z,51.54
2023-05-14T09:35:34.243Z,52.13
2023-05-14T09:38:00.760Z,53.68
2023-05-14T09:40:27.497Z,54.62
2023-05-14T09:42:54.254Z,55.29
2023-05-14T09:45:20.816Z,54.58
2023-05-14T09:47:47.426Z,55.86
2023-05-14T09:50:14.058Z,56.59
2023-05-14T09:52:40.548Z,55.77
2023-05-14T09:55:08.014Z,56.53
2023-05-14T09:57:35.475Z,57.19
2023-05-14T10:00:02.112Z,57.58
2023-05-14T10:02:41.194Z,58.07
2023-05-14T10:05:08.427Z,57.55
2023-05-14T10:07:44.477Z,58.51
2023-05-14T10:10:15.804Z,58.97
2023-05-14T10:12:46.511Z,60.55
2023-05-14T10:15:30.091Z,58.93
2023-05-14T10:18:00.786Z,59.07
2023-05-14T10:20:28.440Z,59.68
2023-05-14T10:22:56.723Z,59.10
2023-05-14T10:25:24.047Z,59.12
2023-05-14T10:27:50.735Z,59.83
2023-05-14T10:30:23.273Z,60.55
2023-05-14T10:32:50.053Z,58.73
2023-05-14T10:35:20.317Z,58.39
2023-05-14T10:37:47.075Z,57.86
2023-05-14T10:40:14.195Z,57.87
2023-05-14T10:42:43.294Z,57.18
2023-05-14T10:45:16.145Z,57.51
2023-05-14T10:47:45.846Z,55.92
2023-05-14T10:50:15.776Z,55.10
2023-05-14T10:52:43.860Z,54.60
2023-05-14T10:55:13.678Z,55.56
2023-05-14T10:57:43.734Z,55.39
2023-05-14T11:00:12.442Z,55.09
2023-05-14T11:02:40.637Z,54.43
2023-05-14T11:05:14.312Z,52.40
2023-05-14T11:07:42.057Z,52.90
2023-05-14T11:10:10.796Z,49.07
2023-05-14T11:12:42.616Z,49.69
2023-05-14T11:15:14.500Z,50.93
2023-05-14T11:17:43.989Z,51.43
2023-05-14T11:20:11.298Z,51.40
2023-05-14T11:22:39.391Z,51.96
2023-05-14T11:25:07.126Z,52.06
2023-05-14T11:27:40.735Z,52.39
2023-05-14T11:30:18.596Z,50.46
2023-05-14T11:32:47.356Z,48.54
2023-05-14T11:35:15.331Z,47.68
2023-05-14T11:37:42.602Z,47.60
2023-05-14T11:40:14.663Z,47.11
2023-05-14T11:42:41.785Z,47.30
2023-05-14T11:45:11.970Z,48.29
2023-05-14T11:47:38.841Z,52.13
2023-05-14T11:50:07.298Z,48.38
2023-05-14T11:52:42.120Z,46.81
2023-05-14T11:55:12.939Z,47.85
2023-05-14T11:57:41.061Z,48.59
2023-05-14T12:00:16.928Z,49.26
2023-05-14T12:02:43.740Z,49.04
2023-05-14T12:05:13.624Z,48.34
2023-05-14T12:07:40.430Z,50.64
2023-05-14T12:10:07.699Z,51.01
2023-05-14T12:12:37.437Z,51.42
2023-05-14T12:15:14.304Z,50.91
2023-05-14T12:17:41.239Z,49.53
2023-05-14T12:20:12.344Z,46.80
2023-05-14T12:22:39.344Z,48.30
2023-05-14T12:25:12.494Z,49.62
2023-05-14T12:27:39.123Z,45.89
2023-05-14T12:30:20.486Z,50.18
2023-05-14T12:32:51.452Z,47.95
2023-05-14T12:35:18.518Z,43.52
2023-05-14T12:37:44.887Z,42.55
2023-05-14T12:40:11.833Z,40.68
2023-05-14T12:42:38.286Z,39.78
2023-05-14T12:45:07.808Z,43.40
2023-05-14T12:47:34.879Z,46.77
2023-05-14T12:50:01.887Z,42.17
2023-05-14T12:52:37.698Z,40.15
2023-05-14T12:55:06.966Z,42.35
2023-05-14T12:57:35.498Z,41.81
2023-05-14T13:00:02.800Z,38.24
2023-05-14T13:02:29.207Z,40.21
2023-05-14T13:04:55.719Z,40.56
2023-05-14T13:07:22.180Z,41.14
2023-05-14T13:09:48.655Z,43.16
2023-05-14T13:12:15.572Z,43.10
2023-05-14T13:14:42.141Z,41.50
2023-05-14T13:17:08.636Z,36.01
2023-05-14T13:19:35.191Z,36.23
2023-05-14T13:22:01.960Z,35.81
2023-05-14T13:24:28.695Z,34.10
2023-05-14T13:26:55.213Z,35.31
2023-05-14T13:29:21.880Z,35.38
2023-05-14T13:31:48.385Z,33.36
2023-05-14T13:34:14.941Z,35.49
2023-05-14T13:36:43.471Z,37.09
2023-05-14T13:39:14.440Z,36.64
2023-05-14T13:41:41.883Z,39.93
2023-05-14T13:44:08.403Z,39.64
2023-05-14T13:46:34.976Z,41.39
2023-05-14T13:49:01.760Z,38.24
2023-05-14T13:51:28.284Z,36.89
2023-05-14T13:56:26.102Z,45.53
2023-05-14T13:58:52.835Z,41.22
2023-05-14T14:01:19.539Z,38.88
2023-05-14T14:03:45.961Z,37.70
2023-05-14T14:06:12.597Z,37.66
2023-05-14T14:08:39.024Z,35.55
2023-05-14T14:11:05.797Z,37.35
2023-05-14T14:13:32.294Z,38.54
2023-05-14T14:15:58.821Z,35.65
2023-05-14T14:18:25.637Z,35.45
2023-05-14T14:20:52.540Z,34.21
2023-05-14T14:23:19.528Z,34.74
2023-05-14T14:25:46.091Z,34.16
2023-05-14T14:28:12.605Z,35.97
2023-05-14T14:30:39.154Z,33.89
2023-05-14T14:33:05.754Z,37.46
2023-05-14T14:35:33.374Z,41.27
2023-05-14T14:38:02.832Z,42.92
2023-05-14T14:40:29.777Z,43.29
2023-05-14T14:42:56.414Z,45.96
2023-05-14T14:45:23.175Z,47.70
2023-05-14T14:47:50.177Z,49.82
2023-05-14T14:50:16.727Z,49.21
2023-05-14T14:52:47.870Z,49.25
2023-05-14T14:55:14.338Z,50.52
2023-05-14T14:57:40.816Z,49.80
2023-05-14T15:00:07.770Z,47.79
2023-05-14T15:02:34.869Z,48.45
2023-05-14T15:05:05.354Z,47.58
2023-05-14T15:07:32.997Z,46.96
2023-05-14T15:09:59.568Z,47.11
2023-05-14T15:12:26.046Z,47.20
2023-05-14T15:14:52.487Z,47.21
2023-05-14T15:17:18.925Z,47.01
2023-05-14T15:19:45.518Z,47.19
2023-05-14T15:22:11.964Z,47.60
2023-05-14T15:24:38.408Z,47.47
2023-05-14T15:27:05.026Z,46.61
2023-05-14T15:29:32.103Z,49.51
2023-05-14T15:31:58.554Z,50.17
2023-05-14T15:34:25.541Z,51.62
2023-05-14T15:36:52.025Z,51.10
2023-05-14T15:39:18.513Z,51.20
2023-05-14T15:41:45.384Z,52.53
2023-05-14T15:44:11.878Z,53.29
2023-05-14T15:46:38.414Z,53.49
2023-05-14T15:49:04.882Z,54.43
2023-05-14T15:51:34.637Z,53.08
2023-05-14T15:54:01.194Z,53.94
2023-05-14T15:56:27.726Z,54.90
2023-05-14T15:58:54.564Z,56.02
2023-05-14T16:01:20.983Z,55.82
2023-05-14T16:03:47.508Z,55.17
2023-05-14T16:06:14.023Z,55.04
2023-05-14T16:08:40.612Z,54.69
2023-05-14T16:11:07.674Z,54.77
2023-05-14T16:13:35.754Z,55.07
2023-05-14T16:16:02.265Z,52.39
2023-05-14T16:18:29.648Z,50.18
2023-05-14T16:20:56.373Z,49.88
2023-05-14T16:23:22.838Z,49.27
2023-05-14T16:25:49.311Z,48.20
2023-05-14T16:28:15.824Z,48.03
2023-05-14T16:30:42.350Z,47.63
2023-05-14T16:33:08.900Z,48.81
2023-05-14T16:35:35.333Z,48.72
2023-05-14T16:38:01.779Z,49.71
2023-05-14T16:40:28.343Z,50.30
2023-05-14T16:42:54.766Z,48.69
2023-05-14T16:45:21.281Z,47.95
2023-05-14T16:47:47.773Z,48.62
2023-05-14T16:50:14.274Z,49.07
2023-05-14T16:52:40.821Z,49.25
2023-05-14T16:55:07.668Z,48.45
2023-05-14T16:57:34.607Z,48.95
2023-05-14T17:00:01.238Z,49.87
2023-05-14T17:02:27.781Z,50.74
2023-05-14T17:04:55.247Z,50.65
2023-05-14T17:07:21.822Z,52.45
2023-05-14T17:09:48.637Z,52.69
2023-05-14T17:12:15.054Z,52.90
2023-05-14T17:14:41.514Z,51.91
2023-05-14T17:17:08.044Z,53.24
2023-05-14T17:19:34.593Z,54.63
2023-05-14T17:22:01.010Z,54.65
2023-05-14T17:24:27.461Z,54.13
2023-05-14T17:26:53.890Z,54.85
2023-05-14T17:29:20.679Z,54.85
2023-05-14T17:31:48.313Z,54.18
2023-05-14T17:34:14.828Z,54.47
2023-05-14T17:36:41.308Z,54.08
2023-05-14T17:39:07.811Z,53.37
2023-05-14T17:41:34.263Z,54.09
2023-05-14T17:44:00.727Z,54.25
2023-05-14T17:46:27.302Z,54.62
2023-05-14T17:48:53.821Z,55.26
2023-05-14T17:51:20.454Z,55.50
2023-05-14T17:53:47.086Z,56.03
2023-05-14T17:56:13.695Z,56.30
2023-05-14T17:58:40.247Z,56.39
2023-05-14T18:01:06.808Z,57.03
2023-05-14T18:03:33.727Z,57.51
2023-05-14T18:06:00.425Z,58.24
2023-05-14T18:08:26.859Z,58.10
2023-05-14T18:10:53.392Z,58.66
2023-05-14T18:13:19.930Z,59.48
2023-05-14T18:15:46.580Z,59.06
2023-05-14T18:18:13.387Z,58.73
2023-05-14T18:20:39.978Z,59.59
2023-05-14T18:23:06.482Z,59.92
2023-05-14T18:25:33.037Z,61.11
2023-05-14T18:27:59.738Z,61.38
2023-05-14T18:30:26.395Z,60.55
2023-05-14T18:32:53.055Z,61.34
2023-05-14T18:35:19.678Z,60.96
2023-05-14T18:37:46.153Z,62.73
2023-05-14T18:40:15.603Z,63.87
2023-05-14T18:42:43.443Z,64.15
2023-05-14T18:45:10.433Z,63.98
2023-05-14T18:47:37.124Z,65.79
2023-05-14T18:50:04.822Z,65.60
2023-05-14T18:52:32.289Z,69.64
2023-05-14T18:54:58.829Z,69.31
2023-05-14T18:57:29.406Z,69.09
2023-05-14T18:59:55.877Z,69.06
2023-05-14T19:02:22.458Z,69.67
2023-05-14T19:04:52.720Z,68.85
2023-05-14T19:07:23.220Z,67.85
2023-05-14T19:09:49.834Z,67.04
2023-05-14T19:12:16.378Z,67.32
2023-05-14T19:14:42.992Z,67.35
2023-05-14T19:17:09.757Z,67.90
2023-05-14T19:19:36.629Z,68.23
2023-05-14T19:22:03.284Z,67.71
2023-05-14T19:24:30.220Z,67.83
2023-05-14T19:26:56.998Z,69.61
2023-05-14T19:29:23.615Z,69.80
2023-05-14T19:31:50.235Z,69.40
2023-05-14T19:34:16.779Z,69.87
2023-05-14T19:36:43.355Z,69.69
2023-05-14T19:39:09.947Z,70.27
2023-05-14T19:41:36.342Z,71.72
2023-05-14T19:44:03.610Z,72.19
2023-05-14T19:46:30.267Z,73.25
2023-05-14T19:48:56.752Z,75.20
2023-05-14T19:51:23.260Z,75.52
2023-05-14T19:53:49.805Z,75.34
2023-05-14T19:56:16.808Z,75.45
2023-05-14T19:58:44.468Z,75.49
2023-05-14T20:01:12.205Z,75.95
2023-05-14T20:03:41.582Z,77.91
2023-05-14T20:06:08.140Z,78.26
2023-05-14T20:08:34.737Z,78.48
2023-05-14T20:11:01.518Z,78.28
2023-05-14T20:13:28.096Z,78.66
2023-05-14T20:15:55.260Z,77.96
2023-05-14T20:18:21.933Z,78.18
2023-05-14T20:20:51.868Z,78.59
2023-05-14T20:23:21.157Z,79.25
2023-05-14T20:25:47.846Z,80.86
2023-05-14T20:28:14.422Z,80.87
2023-05-14T20:30:41.322Z,82.40
2023-05-14T20:33:08.223Z,82.93
2023-05-14T20:35:36.626Z,83.54
2023-05-14T20:38:03.764Z,83.15
2023-05-14T20:40:30.826Z,82.93
2023-05-14T20:42:57.309Z,83.24
2023-05-14T20:45:27.022Z,83.45
2023-05-14T20:47:53.729Z,84.25
2023-05-14T20:50:21.595Z,83.57
2023-05-14T20:52:51.056Z,84.20
2023-05-14T20:55:21.716Z,84.88
2023-05-14T20:57:49.597Z,85.34
2023-05-14T21:00:16.478Z,86.45
2023-05-14T21:02:43.058Z,85.67
2023-05-14T21:05:09.706Z,85.59
2023-05-14T21:07:37.202Z,86.48
2023-05-14T21:10:04.247Z,87.54
2023-05-14T21:12:30.735Z,88.26
2023-05-14T21:14:57.180Z,88.13
2023-05-14T21:17:24.423Z,87.98
2023-05-14T21:19:50.908Z,88.34
2023-05-14T21:22:18.852Z,89.61
2023-05-14T21:24:45.324Z,89.76
2023-05-14T21:27:11.723Z,89.31
2023-05-14T21:29:39.372Z,87.96
2023-05-14T21:32:06.207Z,88.38
2023-05-14T21:34:32.747Z,89.36
2023-05-14T21:36:59.231Z,88.29
2023-05-14T21:39:25.634Z,87.79
2023-05-14T21:41:52.151Z,87.10
2023-05-14T21:44:18.762Z,87.58
2023-05-14T21:46:45.265Z,88.27
2023-05-14T21:49:11.685Z,89.47
2023-05-14T21:51:38.231Z,90.69
2023-05-14T21:54:05.016Z,91.07
2023-05-14T21:56:31.496Z,91.13
2023-05-14T21:58:57.914Z,93.20
2023-05-14T22:01:24.388Z,92.99
2023-05-14T22:03:50.880Z,92.41
2023-05-14T22:06:17.371Z,93.56
2023-05-14T22:08:43.766Z,93.48
2023-05-14T22:11:10.267Z,92.56
2023-05-14T22:13:42.771Z,93.01
2023-05-14T22:16:13.296Z,93.40
2023-05-14T22:18:40.387Z,93.15
2023-05-14T22:21:06.887Z,93.57
2023-05-14T22:23:33.339Z,93.32
2023-05-14T22:25:59.886Z,92.89
2023-05-14T22:28:26.493Z,93.94
2023-05-14T22:30:53.130Z,92.84
2023-05-14T22:33:19.503Z,92.91
2023-05-14T22:35:46.282Z,92.58
2023-05-14T22:38:13.783Z,92.88
2023-05-14T22:40:40.216Z,92.56
2023-05-14T22:43:06.674Z,91.38
2023-05-14T22:45:33.271Z,92.72
2023-05-14T22:47:59.774Z,93.37
2023-05-14T22:50:26.748Z,94.12
2023-05-14T22:52:53.119Z,93.91
2023-05-14T22:55:19.532Z,95.37
2023-05-14T22:57:46.021Z,95.79
2023-05-14T23:00:13.128Z,95.80
2023-05-14T23:02:39.590Z,95.44
2023-05-14T23:05:07.812Z,95.75
2023-05-14T23:07:35.042Z,95.96
2023-05-14T23:10:01.897Z,95.26
2023-05-14T23:12:28.500Z,94.52
2023-05-14T23:14:55.036Z,95.11
2023-05-14T23:17:21.572Z,94.10
2023-05-14T23:19:48.161Z,94.79
2023-05-14T23:22:14.587Z,94.38
2023-05-14T23:24:40.959Z,94.69
2023-05-14T23:27:07.663Z,95.16
2023-05-14T23:29:34.117Z,95.68
2023-05-14T23:32:00.634Z,95.64
2023-05-14T23:34:27.122Z,94.89
2023-05-14T23:36:53.717Z,95.58
2023-05-14T23:39:20.352Z,96.45
2023-05-14T23:41:46.799Z,95.53
2023-05-14T23:44:13.287Z,96.08
2023-05-14T23:46:39.720Z,96.23
2023-05-14T23:49:06.276Z,95.72
2023-05-14T23:51:32.731Z,95.56
2023-05-14T23:53:59.182Z,95.32
2023-05-14T23:56:26.238Z,95.31
2023-05-14T23:58:53.012Z,95.93
